sensor_id;sensor_type;location;lat;lon;timestamp;temperature;humidity
51589;DHT22;37671;53.258;6.460;2022-12-18T00:01:34;-3.50;99.90
51589;DHT22;37671;53.258;6.460;2022-12-18T00:04:02;-3.50;99.90
51589;DHT22;37671;53.258;6.460;2022-12-18T00:06:28;-3.40;99.90
51589;DHT22;37671;53.258;6.460;2022-12-18T00:08:56;-3.40;99.90
51589;DHT22;37671;53.258;6.460;2022-12-18T00:11:26;-3.50;99.90
51589;DHT22;37671;53.258;6.460;2022-12-18T00:13:54;-3.40;99.90
51589;DHT22;37671;53.258;6.460;2022-12-18T00:16:22;-3.50;99.90
51589;DHT22;37671;53.258;6.460;2022-12-18T00:18:49;-3.50;99.90
51589;DHT22;37671;53.258;6.460;2022-12-18T00:21:15;-3.50;99.90
51589;DHT22;37671;53.258;6.460;2022-12-18T00:23:43;-3.50;99.90
51589;DHT22;37671;53.258;6.460;2022-12-18T00:26:21;-3.50;99.90
51589;DHT22;37671;53.258;6.460;2022-12-18T00:28:48;-3.50;99.90
51589;DHT22;37671;53.258;6.460;2022-12-18T00:31:19;-3.50;99.90
51589;DHT22;37671;53.258;6.460;2022-12-18T00:33:46;-3.50;99.90
51589;DHT22;37671;53.258;6.460;2022-12-18T00:36:19;-3.50;99.90
51589;DHT22;37671;53.258;6.460;2022-12-18T00:38:46;-3.50;99.90
51589;DHT22;37671;53.258;6.460;2022-12-18T00:41:14;-3.50;99.90
51589;DHT22;37671;53.258;6.460;2022-12-18T00:44:00;-3.60;99.90
51589;DHT22;37671;53.258;6.460;2022-12-18T00:46:25;-3.60;99.90
51589;DHT22;37671;53.258;6.460;2022-12-18T00:48:51;-3.60;99.90
51589;DHT22;37671;53.258;6.460;2022-12-18T00:51:16;-3.60;99.90
51589;DHT22;37671;53.258;6.460;2022-12-18T00:53:42;-3.60;99.90
51589;DHT22;37671;53.258;6.460;2022-12-18T00:56:07;-3.70;99.90
51589;DHT22;37671;53.258;6.460;2022-12-18T00:58:37;-2.70;99.90
51589;DHT22;37671;53.258;6.460;2022-12-18T01:01:04;-3.70;99.90
51589;DHT22;37671;53.258;6.460;2022-12-18T01:03:30;-3.70;99.90
51589;DHT22;37671;53.258;6.460;2022-12-18T01:05:56;-3.70;99.90
51589;DHT22;37671;53.258;6.460;2022-12-18T01:08:22;-3.70;99.90
51589;DHT22;37671;53.258;6.460;2022-12-18T01:10:47;-3.70;99.90
51589;DHT22;37671;53.258;6.460;2022-12-18T01:13:13;-3.70;99.90
51589;DHT22;37671;53.258;6.460;2022-12-18T01:15:39;-3.80;99.90
51589;DHT22;37671;53.258;6.460;2022-12-18T01:18:06;-3.80;99.90
51589;DHT22;37671;53.258;6.460;2022-12-18T01:20:32;-3.80;99.90
51589;DHT22;37671;53.258;6.460;2022-12-18T01:22:58;-3.90;99.90
51589;DHT22;37671;53.258;6.460;2022-12-18T01:25:23;-3.80;99.90
51589;DHT22;37671;53.258;6.460;2022-12-18T01:27:49;-3.80;99.90
51589;DHT22;37671;53.258;6.460;2022-12-18T01:30:15;-3.90;99.90
51589;DHT22;37671;53.258;6.460;2022-12-18T01:32:40;-3.90;99.90
51589;DHT22;37671;53.258;6.460;2022-12-18T01:35:06;-3.90;99.90
51589;DHT22;37671;53.258;6.460;2022-12-18T01:37:32;-3.90;99.90
51589;DHT22;37671;53.258;6.460;2022-12-18T01:39:58;-3.90;99.90
51589;DHT22;37671;53.258;6.460;2022-12-18T01:42:23;-4.00;99.90
51589;DHT22;37671;53.258;6.460;2022-12-18T01:49:51;-4.00;99.90
51589;DHT22;37671;53.258;6.460;2022-12-18T01:52:17;-4.10;99.90
51589;DHT22;37671;53.258;6.460;2022-12-18T01:54:44;-4.20;99.90
51589;DHT22;37671;53.258;6.460;2022-12-18T01:57:10;-4.20;99.90
51589;DHT22;37671;53.258;6.460;2022-12-18T01:59:36;-4.30;99.90
51589;DHT22;37671;53.258;6.460;2022-12-18T02:02:03;-4.40;99.90
51589;DHT22;37671;53.258;6.460;2022-12-18T02:04:29;-4.40;99.90
51589;DHT22;37671;53.258;6.460;2022-12-18T02:10:06;-4.50;99.90
51589;DHT22;37671;53.258;6.460;2022-12-18T02:12:57;-4.60;99.90
51589;DHT22;37671;53.258;6.460;2022-12-18T02:18:23;-4.60;99.90
51589;DHT22;37671;53.258;6.460;2022-12-18T02:23:48;-4.70;99.90
51589;DHT22;37671;53.258;6.460;2022-12-18T02:26:32;-4.80;99.90
51589;DHT22;37671;53.258;6.460;2022-12-18T07:03:54;-5.90;99.90
51589;DHT22;37671;53.258;6.460;2022-12-18T07:06:21;-6.40;99.90
51589;DHT22;37671;53.258;6.460;2022-12-18T07:08:48;-6.30;99.90
51589;DHT22;37671;53.258;6.460;2022-12-18T07:11:15;-6.30;99.90
51589;DHT22;37671;53.258;6.460;2022-12-18T07:13:41;-6.30;99.90
51589;DHT22;37671;53.258;6.460;2022-12-18T07:16:09;-6.20;99.90
51589;DHT22;37671;53.258;6.460;2022-12-18T07:18:35;-6.20;99.90
51589;DHT22;37671;53.258;6.460;2022-12-18T07:21:05;-6.10;99.90
51589;DHT22;37671;53.258;6.460;2022-12-18T07:23:32;-4.80;99.90
51589;DHT22;37671;53.258;6.460;2022-12-18T07:26:03;-6.00;99.90
51589;DHT22;37671;53.258;6.460;2022-12-18T07:28:29;-6.00;99.90
51589;DHT22;37671;53.258;6.460;2022-12-18T07:30:55;-6.00;99.90
51589;DHT22;37671;53.258;6.460;2022-12-18T07:33:21;-6.00;99.90
51589;DHT22;37671;53.258;6.460;2022-12-18T07:35:46;-6.00;99.90
51589;DHT22;37671;53.258;6.460;2022-12-18T07:38:12;-5.40;99.90
51589;DHT22;37671;53.258;6.460;2022-12-18T07:40:37;-5.90;99.90
51589;DHT22;37671;53.258;6.460;2022-12-18T07:43:03;-5.90;99.90
51589;DHT22;37671;53.258;6.460;2022-12-18T07:45:30;-5.80;99.90
51589;DHT22;37671;53.258;6.460;2022-12-18T07:47:56;-5.80;99.90
51589;DHT22;37671;53.258;6.460;2022-12-18T07:50:21;-5.80;99.90
51589;DHT22;37671;53.258;6.460;2022-12-18T07:52:47;-5.80;99.90
51589;DHT22;37671;53.258;6.460;2022-12-18T07:55:12;-5.80;99.90
51589;DHT22;37671;53.258;6.460;2022-12-18T07:57:38;-5.80;99.90
51589;DHT22;37671;53.258;6.460;2022-12-18T08:00:04;-5.70;99.90
51589;DHT22;37671;53.258;6.460;2022-12-18T08:02:31;-5.70;99.90
51589;DHT22;37671;53.258;6.460;2022-12-18T08:04:57;-5.70;99.90
51589;DHT22;37671;53.258;6.460;2022-12-18T08:07:22;-5.70;99.90
51589;DHT22;37671;53.258;6.460;2022-12-18T08:09:48;-5.70;99.90
51589;DHT22;37671;53.258;6.460;2022-12-18T08:12:13;-5.70;99.90
51589;DHT22;37671;53.258;6.460;2022-12-18T08:14:39;-5.60;99.90
51589;DHT22;37671;53.258;6.460;2022-12-18T08:17:05;-5.50;99.90
51589;DHT22;37671;53.258;6.460;2022-12-18T08:19:30;-5.50;99.90
51589;DHT22;37671;53.258;6.460;2022-12-18T08:21:56;-5.40;99.90
51589;DHT22;37671;53.258;6.460;2022-12-18T08:24:22;-5.50;99.90
51589;DHT22;37671;53.258;6.460;2022-12-18T08:26:48;-5.30;99.90
51589;DHT22;37671;53.258;6.460;2022-12-18T08:29:13;-5.30;99.90
51589;DHT22;37671;53.258;6.460;2022-12-18T08:31:39;-5.30;99.90
51589;DHT22;37671;53.258;6.460;2022-12-18T08:34:04;-5.20;99.90
51589;DHT22;37671;53.258;6.460;2022-12-18T08:36:30;-5.10;99.90
51589;DHT22;37671;53.258;6.460;2022-12-18T08:38:56;-5.10;99.90
51589;DHT22;37671;53.258;6.460;2022-12-18T08:41:22;-5.00;99.90
51589;DHT22;37671;53.258;6.460;2022-12-18T08:43:48;-5.00;99.90
51589;DHT22;37671;53.258;6.460;2022-12-18T08:46:39;-4.90;99.90
51589;DHT22;37671;53.258;6.460;2022-12-18T08:49:06;-4.90;99.90
51589;DHT22;37671;53.258;6.460;2022-12-18T08:51:32;-4.80;99.90
51589;DHT22;37671;53.258;6.460;2022-12-18T08:53:58;-4.80;99.90
51589;DHT22;37671;53.258;6.460;2022-12-18T08:56:23;-4.10;99.90
51589;DHT22;37671;53.258;6.460;2022-12-18T08:58:54;-4.70;99.90
51589;DHT22;37671;53.258;6.460;2022-12-18T09:01:20;-4.60;99.90
51589;DHT22;37671;53.258;6.460;2022-12-18T09:03:46;-4.60;99.90
51589;DHT22;37671;53.258;6.460;2022-12-18T09:06:16;-4.50;99.90
51589;DHT22;37671;53.258;6.460;2022-12-18T09:08:45;-4.40;99.90
51589;DHT22;37671;53.258;6.460;2022-12-18T09:11:19;-4.30;99.90
51589;DHT22;37671;53.258;6.460;2022-12-18T09:13:45;-4.20;99.90
51589;DHT22;37671;53.258;6.460;2022-12-18T09:16:11;-4.20;99.90
51589;DHT22;37671;53.258;6.460;2022-12-18T09:18:36;-4.10;99.90
51589;DHT22;37671;53.258;6.460;2022-12-18T09:21:14;-4.00;99.90
51589;DHT22;37671;53.258;6.460;2022-12-18T09:23:40;-3.90;99.90
51589;DHT22;37671;53.258;6.460;2022-12-18T09:26:06;-3.90;99.90
51589;DHT22;37671;53.258;6.460;2022-12-18T09:28:31;-3.90;99.90
51589;DHT22;37671;53.258;6.460;2022-12-18T09:30:57;-3.90;99.90
51589;DHT22;37671;53.258;6.460;2022-12-18T09:33:23;-3.90;99.90
51589;DHT22;37671;53.258;6.460;2022-12-18T09:35:48;-3.80;99.90
51589;DHT22;37671;53.258;6.460;2022-12-18T09:38:16;-3.80;99.90
51589;DHT22;37671;53.258;6.460;2022-12-18T09:40:44;-3.70;99.90
51589;DHT22;37671;53.258;6.460;2022-12-18T09:46:15;-3.70;99.90
51589;DHT22;37671;53.258;6.460;2022-12-18T09:48:45;-3.70;99.90
51589;DHT22;37671;53.258;6.460;2022-12-18T09:51:19;-3.60;99.90
51589;DHT22;37671;53.258;6.460;2022-12-18T09:53:53;-3.70;99.90
51589;DHT22;37671;53.258;6.460;2022-12-18T09:56:22;-3.70;99.90
51589;DHT22;37671;53.258;6.460;2022-12-18T09:58:59;-3.70;99.90
51589;DHT22;37671;53.258;6.460;2022-12-18T10:01:26;-3.70;99.90
51589;DHT22;37671;53.258;6.460;2022-12-18T10:03:52;-3.60;99.90
51589;DHT22;37671;53.258;6.460;2022-12-18T10:06:37;-3.60;99.90
51589;DHT22;37671;53.258;6.460;2022-12-18T10:09:41;-3.60;99.90
51589;DHT22;37671;53.258;6.460;2022-12-18T10:17:46;-3.40;99.90
51589;DHT22;37671;53.258;6.460;2022-12-18T10:20:16;-3.40;99.90
51589;DHT22;37671;53.258;6.460;2022-12-18T10:28:16;-3.20;99.90
51589;DHT22;37671;53.258;6.460;2022-12-18T10:30:43;-3.20;99.90
51589;DHT22;37671;53.258;6.460;2022-12-18T10:33:18;-3.10;99.90
51589;DHT22;37671;53.258;6.460;2022-12-18T10:35:45;-3.10;99.90
51589;DHT22;37671;53.258;6.460;2022-12-18T10:41:01;-3.20;99.90
51589;DHT22;37671;53.258;6.460;2022-12-18T10:46:15;-3.20;99.90
51589;DHT22;37671;53.258;6.460;2022-12-18T10:51:07;-3.10;99.90
51589;DHT22;37671;53.258;6.460;2022-12-18T10:53:36;-3.10;99.90
51589;DHT22;37671;53.258;6.460;2022-12-18T10:56:04;-3.00;99.90
51589;DHT22;37671;53.258;6.460;2022-12-18T10:58:34;-3.00;99.90
51589;DHT22;37671;53.258;6.460;2022-12-18T11:01:17;-2.90;99.90
51589;DHT22;37671;53.258;6.460;2022-12-18T11:03:47;-2.80;99.90
51589;DHT22;37671;53.258;6.460;2022-12-18T11:06:24;-2.80;99.90
51589;DHT22;37671;53.258;6.460;2022-12-18T11:09:02;-2.70;99.90
51589;DHT22;37671;53.258;6.460;2022-12-18T11:11:29;-2.60;99.90
51589;DHT22;37671;53.258;6.460;2022-12-18T11:14:06;-2.60;99.90
51589;DHT22;37671;53.258;6.460;2022-12-18T11:16:44;-2.50;99.90
51589;DHT22;37671;53.258;6.460;2022-12-18T11:19:34;-2.50;99.90
51589;DHT22;37671;53.258;6.460;2022-12-18T11:22:25;-2.50;99.90
51589;DHT22;37671;53.258;6.460;2022-12-18T11:27:37;-2.40;99.90
51589;DHT22;37671;53.258;6.460;2022-12-18T11:33:01;-2.40;99.90
51589;DHT22;37671;53.258;6.460;2022-12-18T11:38:24;-2.30;99.90
51589;DHT22;37671;53.258;6.460;2022-12-18T11:43:53;-2.20;99.90
51589;DHT22;37671;53.258;6.460;2022-12-18T11:46:44;-2.20;99.90
51589;DHT22;37671;53.258;6.460;2022-12-18T11:49:36;-2.20;99.90
51589;DHT22;37671;53.258;6.460;2022-12-18T11:52:09;-2.10;99.90
51589;DHT22;37671;53.258;6.460;2022-12-18T11:54:35;-2.10;99.90
51589;DHT22;37671;53.258;6.460;2022-12-18T12:02:57;-2.00;99.90
51589;DHT22;37671;53.258;6.460;2022-12-18T12:13:19;-1.90;99.90
51589;DHT22;37671;53.258;6.460;2022-12-18T12:21:20;-1.80;99.90
51589;DHT22;37671;53.258;6.460;2022-12-18T12:26:37;-1.70;99.90
51589;DHT22;37671;53.258;6.460;2022-12-18T12:29:28;-1.80;99.90
51589;DHT22;37671;53.258;6.460;2022-12-18T12:37:40;-1.60;99.90
51589;DHT22;37671;53.258;6.460;2022-12-18T12:40:14;-1.60;99.90
51589;DHT22;37671;53.258;6.460;2022-12-18T12:42:46;-1.60;99.90
51589;DHT22;37671;53.258;6.460;2022-12-18T12:45:46;-1.60;99.90
51589;DHT22;37671;53.258;6.460;2022-12-18T12:48:35;-1.50;99.90
51589;DHT22;37671;53.258;6.460;2022-12-18T12:51:28;-1.50;99.90
51589;DHT22;37671;53.258;6.460;2022-12-18T12:53:57;-1.50;99.90
51589;DHT22;37671;53.258;6.460;2022-12-18T12:56:26;-1.50;99.90
51589;DHT22;37671;53.258;6.460;2022-12-18T12:59:13;-1.50;99.90
51589;DHT22;37671;53.258;6.460;2022-12-18T13:01:41;-1.40;99.90
51589;DHT22;37671;53.258;6.460;2022-12-18T13:04:37;-1.40;99.90
51589;DHT22;37671;53.258;6.460;2022-12-18T13:07:31;-1.40;99.90
51589;DHT22;37671;53.258;6.460;2022-12-18T13:20:42;-1.10;99.90
51589;DHT22;37671;53.258;6.460;2022-12-18T13:30:59;-1.10;99.90
51589;DHT22;37671;53.258;6.460;2022-12-18T13:36:13;-1.10;99.90
51589;DHT22;37671;53.258;6.460;2022-12-18T13:38:40;-1.10;99.90
51589;DHT22;37671;53.258;6.460;2022-12-18T13:43:49;-1.10;99.90
51589;DHT22;37671;53.258;6.460;2022-12-18T13:46:41;-1.20;99.90
51589;DHT22;37671;53.258;6.460;2022-12-18T13:51:44;-1.20;99.90
51589;DHT22;37671;53.258;6.460;2022-12-18T13:54:39;-1.20;99.90
51589;DHT22;37671;53.258;6.460;2022-12-18T13:57:24;-1.20;99.90
51589;DHT22;37671;53.258;6.460;2022-12-18T13:59:50;-1.20;99.90
51589;DHT22;37671;53.258;6.460;2022-12-18T14:02:21;-1.20;99.90
51589;DHT22;37671;53.258;6.460;2022-12-18T14:04:47;-1.10;99.90
51589;DHT22;37671;53.258;6.460;2022-12-18T14:07:23;-1.20;99.90
51589;DHT22;37671;53.258;6.460;2022-12-18T14:09:54;-1.20;99.90
51589;DHT22;37671;53.258;6.460;2022-12-18T14:12:27;-1.20;99.90
51589;DHT22;37671;53.258;6.460;2022-12-18T14:17:58;-1.20;99.90
51589;DHT22;37671;53.258;6.460;2022-12-18T14:20:26;-1.30;99.90
51589;DHT22;37671;53.258;6.460;2022-12-18T14:22:52;-1.30;99.90
51589;DHT22;37671;53.258;6.460;2022-12-18T14:25:24;-1.30;99.90
51589;DHT22;37671;53.258;6.460;2022-12-18T14:30:40;-1.40;99.90
51589;DHT22;37671;53.258;6.460;2022-12-18T14:33:11;-1.40;99.90
51589;DHT22;37671;53.258;6.460;2022-12-18T14:35:52;-1.40;99.90
51589;DHT22;37671;53.258;6.460;2022-12-18T14:38:28;-0.20;99.90
51589;DHT22;37671;53.258;6.460;2022-12-18T14:43:24;-1.40;99.90
51589;DHT22;37671;53.258;6.460;2022-12-18T14:45:51;-1.40;99.90
51589;DHT22;37671;53.258;6.460;2022-12-18T14:50:45;-1.50;99.90
51589;DHT22;37671;53.258;6.460;2022-12-18T14:53:20;-1.50;99.90
51589;DHT22;37671;53.258;6.460;2022-12-18T14:55:48;-1.50;99.90
51589;DHT22;37671;53.258;6.460;2022-12-18T14:58:16;-1.40;99.90
51589;DHT22;37671;53.258;6.460;2022-12-18T15:00:43;-1.50;99.90
51589;DHT22;37671;53.258;6.460;2022-12-18T15:03:09;-1.50;99.90
51589;DHT22;37671;53.258;6.460;2022-12-18T15:05:35;-1.50;99.90
51589;DHT22;37671;53.258;6.460;2022-12-18T15:08:24;-1.50;99.90
51589;DHT22;37671;53.258;6.460;2022-12-18T15:10:47;-1.40;99.90
51589;DHT22;37671;53.258;6.460;2022-12-18T15:13:23;-1.40;99.90
51589;DHT22;37671;53.258;6.460;2022-12-18T15:15:50;-1.50;99.90
51589;DHT22;37671;53.258;6.460;2022-12-18T15:18:18;-1.50;99.90
51589;DHT22;37671;53.258;6.460;2022-12-18T15:20:47;-1.70;99.90
51589;DHT22;37671;53.258;6.460;2022-12-18T15:26:05;-1.50;99.90
51589;DHT22;37671;53.258;6.460;2022-12-18T15:28:36;-1.50;99.90
51589;DHT22;37671;53.258;6.460;2022-12-18T15:31:05;-1.60;99.90
51589;DHT22;37671;53.258;6.460;2022-12-18T15:33:38;-1.60;99.90
51589;DHT22;37671;53.258;6.460;2022-12-18T15:36:08;-1.60;99.90
51589;DHT22;37671;53.258;6.460;2022-12-18T15:38:34;-1.60;99.90
51589;DHT22;37671;53.258;6.460;2022-12-18T15:41:00;-1.60;99.90
51589;DHT22;37671;53.258;6.460;2022-12-18T15:43:27;-1.70;99.90
51589;DHT22;37671;53.258;6.460;2022-12-18T15:46:19;-1.70;99.90
51589;DHT22;37671;53.258;6.460;2022-12-18T15:48:48;-1.70;99.90
51589;DHT22;37671;53.258;6.460;2022-12-18T15:51:25;-1.70;99.90
51589;DHT22;37671;53.258;6.460;2022-12-18T15:53:56;-1.70;99.90
51589;DHT22;37671;53.258;6.460;2022-12-18T15:56:24;-1.70;99.90
51589;DHT22;37671;53.258;6.460;2022-12-18T15:59:16;-1.70;99.90
51589;DHT22;37671;53.258;6.460;2022-12-18T16:01:44;-1.70;99.90
51589;DHT22;37671;53.258;6.460;2022-12-18T16:04:16;-1.60;99.90
51589;DHT22;37671;53.258;6.460;2022-12-18T16:06:45;-1.70;99.90
51589;DHT22;37671;53.258;6.460;2022-12-18T16:09:11;-1.70;99.90
51589;DHT22;37671;53.258;6.460;2022-12-18T16:11:39;-1.60;99.90
51589;DHT22;37671;53.258;6.460;2022-12-18T16:14:18;-1.70;99.90
51589;DHT22;37671;53.258;6.460;2022-12-18T16:16:46;-1.70;99.90
51589;DHT22;37671;53.258;6.460;2022-12-18T16:19:12;-1.70;99.90
51589;DHT22;37671;53.258;6.460;2022-12-18T16:21:37;-1.70;99.90
51589;DHT22;37671;53.258;6.460;2022-12-18T16:24:03;-0.10;99.90
51589;DHT22;37671;53.258;6.460;2022-12-18T16:26:32;-1.60;99.90
51589;DHT22;37671;53.258;6.460;2022-12-18T16:28:58;-1.60;99.90
51589;DHT22;37671;53.258;6.460;2022-12-18T16:31:24;-1.70;99.90
51589;DHT22;37671;53.258;6.460;2022-12-18T16:33:49;-1.70;99.90
51589;DHT22;37671;53.258;6.460;2022-12-18T16:36:34;-1.70;99.90
51589;DHT22;37671;53.258;6.460;2022-12-18T16:39:03;-1.80;99.90
51589;DHT22;37671;53.258;6.460;2022-12-18T16:41:28;-1.70;99.90
51589;DHT22;37671;53.258;6.460;2022-12-18T16:43:57;-1.70;99.90
51589;DHT22;37671;53.258;6.460;2022-12-18T16:46:23;0.00;99.90
51589;DHT22;37671;53.258;6.460;2022-12-18T16:48:48;-1.70;99.90
51589;DHT22;37671;53.258;6.460;2022-12-18T16:51:14;-1.70;99.90
51589;DHT22;37671;53.258;6.460;2022-12-18T16:53:40;-1.70;99.90
51589;DHT22;37671;53.258;6.460;2022-12-18T16:56:06;-1.70;99.90
51589;DHT22;37671;53.258;6.460;2022-12-18T16:58:31;-1.70;99.90
51589;DHT22;37671;53.258;6.460;2022-12-18T17:00:57;-1.70;99.90
51589;DHT22;37671;53.258;6.460;2022-12-18T17:03:23;-1.70;99.90
51589;DHT22;37671;53.258;6.460;2022-12-18T17:05:51;-1.70;99.90
51589;DHT22;37671;53.258;6.460;2022-12-18T17:08:17;-1.70;99.90
51589;DHT22;37671;53.258;6.460;2022-12-18T17:10:42;-1.70;99.90
51589;DHT22;37671;53.258;6.460;2022-12-18T17:13:12;-1.70;99.90
51589;DHT22;37671;53.258;6.460;2022-12-18T17:15:37;-1.70;99.90
51589;DHT22;37671;53.258;6.460;2022-12-18T17:18:03;-1.70;99.90
51589;DHT22;37671;53.258;6.460;2022-12-18T17:20:32;-1.70;99.90
51589;DHT22;37671;53.258;6.460;2022-12-18T17:22:57;-1.70;99.90
51589;DHT22;37671;53.258;6.460;2022-12-18T17:25:23;-1.70;99.90
51589;DHT22;37671;53.258;6.460;2022-12-18T17:27:50;-1.70;99.90
51589;DHT22;37671;53.258;6.460;2022-12-18T17:30:15;-1.60;99.90
51589;DHT22;37671;53.258;6.460;2022-12-18T17:32:41;-1.60;99.90
51589;DHT22;37671;53.258;6.460;2022-12-18T17:35:07;-1.60;99.90
51589;DHT22;37671;53.258;6.460;2022-12-18T17:37:33;-1.50;99.90
51589;DHT22;37671;53.258;6.460;2022-12-18T17:39:58;-1.50;99.90
51589;DHT22;37671;53.258;6.460;2022-12-18T17:42:24;-1.50;99.90
51589;DHT22;37671;53.258;6.460;2022-12-18T17:44:50;-1.50;99.90
51589;DHT22;37671;53.258;6.460;2022-12-18T17:47:17;-1.50;99.90
51589;DHT22;37671;53.258;6.460;2022-12-18T17:49:43;-1.50;99.90
51589;DHT22;37671;53.258;6.460;2022-12-18T17:52:09;-1.50;99.90
51589;DHT22;37671;53.258;6.460;2022-12-18T17:54:35;-1.40;99.90
51589;DHT22;37671;53.258;6.460;2022-12-18T17:57:04;-1.40;99.90
51589;DHT22;37671;53.258;6.460;2022-12-18T17:59:29;-1.40;99.90
51589;DHT22;37671;53.258;6.460;2022-12-18T18:01:55;-1.40;99.90
51589;DHT22;37671;53.258;6.460;2022-12-18T18:04:21;-1.40;99.90
51589;DHT22;37671;53.258;6.460;2022-12-18T18:06:47;-1.30;99.90
51589;DHT22;37671;53.258;6.460;2022-12-18T18:09:13;-1.30;99.90
51589;DHT22;37671;53.258;6.460;2022-12-18T18:11:38;-1.30;99.90
51589;DHT22;37671;53.258;6.460;2022-12-18T18:14:23;-1.20;99.90
51589;DHT22;37671;53.258;6.460;2022-12-18T18:16:50;-1.30;99.90
51589;DHT22;37671;53.258;6.460;2022-12-18T18:19:19;-1.20;99.90
51589;DHT22;37671;53.258;6.460;2022-12-18T18:21:46;-1.20;99.90
51589;DHT22;37671;53.258;6.460;2022-12-18T18:24:15;-0.30;99.90
51589;DHT22;37671;53.258;6.460;2022-12-18T18:26:41;-1.20;99.90
51589;DHT22;37671;53.258;6.460;2022-12-18T18:29:17;-1.20;99.90
51589;DHT22;37671;53.258;6.460;2022-12-18T18:31:43;-1.10;99.90
51589;DHT22;37671;53.258;6.460;2022-12-18T18:34:20;-1.00;99.90
51589;DHT22;37671;53.258;6.460;2022-12-18T18:36:46;-1.10;99.90
51589;DHT22;37671;53.258;6.460;2022-12-18T18:39:13;-1.10;99.90
51589;DHT22;37671;53.258;6.460;2022-12-18T18:41:39;-1.10;99.90
51589;DHT22;37671;53.258;6.460;2022-12-18T18:44:05;-1.00;99.90
51589;DHT22;37671;53.258;6.460;2022-12-18T18:46:31;-1.00;99.90
51589;DHT22;37671;53.258;6.460;2022-12-18T18:48:57;-1.00;99.90
51589;DHT22;37671;53.258;6.460;2022-12-18T18:51:23;-1.00;99.90
51589;DHT22;37671;53.258;6.460;2022-12-18T18:53:50;-1.00;99.90
51589;DHT22;37671;53.258;6.460;2022-12-18T18:56:19;-1.00;99.90
51589;DHT22;37671;53.258;6.460;2022-12-18T18:58:45;-0.90;99.90
51589;DHT22;37671;53.258;6.460;2022-12-18T19:01:13;-0.90;99.90
51589;DHT22;37671;53.258;6.460;2022-12-18T19:03:39;-0.90;99.90
51589;DHT22;37671;53.258;6.460;2022-12-18T19:06:07;-0.90;99.90
51589;DHT22;37671;53.258;6.460;2022-12-18T19:08:37;-0.90;99.90
51589;DHT22;37671;53.258;6.460;2022-12-18T19:11:06;-0.80;99.90
51589;DHT22;37671;53.258;6.460;2022-12-18T19:13:58;-0.80;99.90
51589;DHT22;37671;53.258;6.460;2022-12-18T19:16:26;-0.80;99.90
51589;DHT22;37671;53.258;6.460;2022-12-18T19:18:53;-0.80;99.90
51589;DHT22;37671;53.258;6.460;2022-12-18T19:21:20;-0.80;99.90
51589;DHT22;37671;53.258;6.460;2022-12-18T19:23:45;-0.80;99.90
51589;DHT22;37671;53.258;6.460;2022-12-18T19:26:12;-0.80;99.90
51589;DHT22;37671;53.258;6.460;2022-12-18T19:28:38;-0.80;99.90
51589;DHT22;37671;53.258;6.460;2022-12-18T19:31:06;-0.70;99.90
51589;DHT22;37671;53.258;6.460;2022-12-18T19:33:36;-0.80;99.90
51589;DHT22;37671;53.258;6.460;2022-12-18T19:36:23;-0.70;99.90
51589;DHT22;37671;53.258;6.460;2022-12-18T19:38:50;-0.80;99.90
51589;DHT22;37671;53.258;6.460;2022-12-18T19:41:16;-0.80;99.90
51589;DHT22;37671;53.258;6.460;2022-12-18T19:43:42;-0.70;99.90
51589;DHT22;37671;53.258;6.460;2022-12-18T19:46:11;-0.80;99.90
51589;DHT22;37671;53.258;6.460;2022-12-18T19:48:37;-0.80;99.90
51589;DHT22;37671;53.258;6.460;2022-12-18T19:51:16;-0.80;99.90
51589;DHT22;37671;53.258;6.460;2022-12-18T19:53:42;-0.70;99.90
51589;DHT22;37671;53.258;6.460;2022-12-18T19:56:09;-0.70;99.90
51589;DHT22;37671;53.258;6.460;2022-12-18T19:58:36;-0.70;99.90
51589;DHT22;37671;53.258;6.460;2022-12-18T20:01:02;-0.70;99.90
51589;DHT22;37671;53.258;6.460;2022-12-18T20:03:27;-0.60;99.90
51589;DHT22;37671;53.258;6.460;2022-12-18T20:05:53;-0.60;99.90
51589;DHT22;37671;53.258;6.460;2022-12-18T20:08:19;-0.60;99.90
51589;DHT22;37671;53.258;6.460;2022-12-18T20:10:45;-0.60;99.90
51589;DHT22;37671;53.258;6.460;2022-12-18T20:13:14;-0.60;99.90
51589;DHT22;37671;53.258;6.460;2022-12-18T20:15:40;-0.50;99.90
51589;DHT22;37671;53.258;6.460;2022-12-18T20:18:05;-0.50;99.90
51589;DHT22;37671;53.258;6.460;2022-12-18T20:20:31;-0.50;99.90
51589;DHT22;37671;53.258;6.460;2022-12-18T20:22:57;-0.50;99.90
51589;DHT22;37671;53.258;6.460;2022-12-18T20:25:22;-0.50;99.90
51589;DHT22;37671;53.258;6.460;2022-12-18T20:27:48;-0.50;99.90
51589;DHT22;37671;53.258;6.460;2022-12-18T20:30:14;0.80;99.90
51589;DHT22;37671;53.258;6.460;2022-12-18T20:32:41;-0.50;99.90
51589;DHT22;37671;53.258;6.460;2022-12-18T20:35:06;-0.50;99.90
51589;DHT22;37671;53.258;6.460;2022-12-18T20:37:32;-0.50;99.90
51589;DHT22;37671;53.258;6.460;2022-12-18T20:39:57;-0.50;99.90
51589;DHT22;37671;53.258;6.460;2022-12-18T20:42:23;-0.50;99.90
51589;DHT22;37671;53.258;6.460;2022-12-18T20:44:49;-0.50;99.90
51589;DHT22;37671;53.258;6.460;2022-12-18T20:47:14;-0.50;99.90
51589;DHT22;37671;53.258;6.460;2022-12-18T20:49:40;0.40;99.90
51589;DHT22;37671;53.258;6.460;2022-12-18T20:52:06;-0.50;99.90
51589;DHT22;37671;53.258;6.460;2022-12-18T20:54:31;-0.50;99.90
51589;DHT22;37671;53.258;6.460;2022-12-18T20:56:57;-0.50;99.90
51589;DHT22;37671;53.258;6.460;2022-12-18T20:59:23;-0.50;99.90
51589;DHT22;37671;53.258;6.460;2022-12-18T21:01:50;-0.40;99.90
51589;DHT22;37671;53.258;6.460;2022-12-18T21:04:20;-0.40;99.90
51589;DHT22;37671;53.258;6.460;2022-12-18T21:06:47;-0.40;99.90
51589;DHT22;37671;53.258;6.460;2022-12-18T21:09:13;-0.40;99.90
51589;DHT22;37671;53.258;6.460;2022-12-18T21:11:38;-0.40;99.90
51589;DHT22;37671;53.258;6.460;2022-12-18T21:14:25;0.30;99.90
51589;DHT22;37671;53.258;6.460;2022-12-18T21:16:52;-0.40;99.90
51589;DHT22;37671;53.258;6.460;2022-12-18T21:19:21;-0.40;99.90
51589;DHT22;37671;53.258;6.460;2022-12-18T21:21:47;-0.30;99.90
51589;DHT22;37671;53.258;6.460;2022-12-18T21:24:13;-0.10;99.90
51589;DHT22;37671;53.258;6.460;2022-12-18T21:26:43;-0.30;99.90
51589;DHT22;37671;53.258;6.460;2022-12-18T21:29:11;-0.30;99.90
51589;DHT22;37671;53.258;6.460;2022-12-18T21:31:37;-0.20;99.90
51589;DHT22;37671;53.258;6.460;2022-12-18T21:34:05;-0.20;99.90
51589;DHT22;37671;53.258;6.460;2022-12-18T21:36:32;-0.30;99.90
51589;DHT22;37671;53.258;6.460;2022-12-18T21:38:58;-0.20;99.90
51589;DHT22;37671;53.258;6.460;2022-12-18T21:41:25;-0.20;99.90
51589;DHT22;37671;53.258;6.460;2022-12-18T21:44:11;-0.10;99.90
51589;DHT22;37671;53.258;6.460;2022-12-18T21:46:42;-0.10;99.90
51589;DHT22;37671;53.258;6.460;2022-12-18T21:49:09;-0.10;99.90
51589;DHT22;37671;53.258;6.460;2022-12-18T21:51:35;-0.10;99.90
51589;DHT22;37671;53.258;6.460;2022-12-18T21:54:01;-0.10;99.90
51589;DHT22;37671;53.258;6.460;2022-12-18T21:59:08;-0.10;99.90
51589;DHT22;37671;53.258;6.460;2022-12-18T22:01:33;-0.10;99.90
51589;DHT22;37671;53.258;6.460;2022-12-18T22:03:59;0.00;99.90
51589;DHT22;37671;53.258;6.460;2022-12-18T22:06:25;-0.10;99.90
51589;DHT22;37671;53.258;6.460;2022-12-18T22:08:50;-0.10;99.90
51589;DHT22;37671;53.258;6.460;2022-12-18T22:11:16;0.00;99.90
51589;DHT22;37671;53.258;6.460;2022-12-18T22:13:41;0.00;99.90
51589;DHT22;37671;53.258;6.460;2022-12-18T22:16:07;0.00;99.90